ANA416 RJBE-RJTT
Flight info
| Callsign | ANA416 |
|---|---|
| Flight time | 0h 55m |
| Altitude | FL310 |
| Route | MUKRI LANID REVUE HYOGO SANDA Y289 SHTLE Y71 XAC |
| Aircraft | A321/M-S/N |
Departure
| Time | 2026-05-05 12:26 |
|---|---|
| Airport | Kobe Airport (RJBE) |
Arrival
| Time | 2026-05-05 13:22 |
|---|---|
| Airport | Tokyo Haneda International Airport (RJTT) |
| Time | Latitude | Longitude | Altitude | Speed | Heading |
|---|---|---|---|---|---|
| 2026-05-05 12:05 | 34.63610 | 135.22939 | 40 ft | 0 kts | 354° |
| 2026-05-05 12:19 | 34.63602 | 135.22940 | 39 ft | 2 kts | 354° |
| 2026-05-05 12:19 | 34.63588 | 135.22942 | 39 ft | 2 kts | 354° |
| 2026-05-05 12:19 | 34.63572 | 135.22944 | 39 ft | 2 kts | 354° |
| 2026-05-05 12:20 | 34.63557 | 135.22945 | 39 ft | 2 kts | 14° |
| 2026-05-05 12:20 | 34.63544 | 135.22936 | 39 ft | 2 kts | 53° |
| 2026-05-05 12:20 | 34.63539 | 135.22923 | 39 ft | 0 kts | 81° |
| 2026-05-05 12:20 | 34.63539 | 135.22915 | 39 ft | 1 kts | 84° |
| 2026-05-05 12:21 | 34.63539 | 135.22914 | 40 ft | 0 kts | 84° |
| 2026-05-05 12:22 | 34.63539 | 135.22915 | 40 ft | 0 kts | 85° |
| 2026-05-05 12:22 | 34.63538 | 135.22923 | 40 ft | 3 kts | 105° |
| 2026-05-05 12:22 | 34.63525 | 135.22958 | 40 ft | 6 kts | 116° |
| 2026-05-05 12:23 | 34.63501 | 135.23017 | 40 ft | 10 kts | 115° |
| 2026-05-05 12:23 | 34.63493 | 135.23111 | 40 ft | 11 kts | 84° |
| 2026-05-05 12:23 | 34.63500 | 135.23218 | 40 ft | 14 kts | 86° |
| 2026-05-05 12:23 | 34.63511 | 135.23344 | 40 ft | 15 kts | 84° |
| 2026-05-05 12:24 | 34.63521 | 135.23479 | 41 ft | 17 kts | 84° |
| 2026-05-05 12:24 | 34.63531 | 135.23598 | 41 ft | 13 kts | 84° |
| 2026-05-05 12:24 | 34.63521 | 135.23686 | 41 ft | 10 kts | 126° |
| 2026-05-05 12:24 | 34.63468 | 135.23715 | 41 ft | 8 kts | 173° |
| 2026-05-05 12:25 | 34.63403 | 135.23717 | 41 ft | 11 kts | 197° |
| 2026-05-05 12:25 | 34.63368 | 135.23640 | 41 ft | 11 kts | 264° |
| 2026-05-05 12:25 | 34.63351 | 135.23425 | 40 ft | 57 kts | 264° |
| 2026-05-05 12:25 | 34.63292 | 135.22669 | 40 ft | 122 kts | 264° |
| 2026-05-05 12:26 | 34.63195 | 135.21431 | 111 ft | 166 kts | 263° |
| 2026-05-05 12:26 | 34.63073 | 135.20015 | 575 ft | 175 kts | 262° |
| 2026-05-05 12:26 | 34.62781 | 135.18586 | 1188 ft | 176 kts | 236° |
| 2026-05-05 12:26 | 34.62059 | 135.17456 | 1898 ft | 172 kts | 224° |
| 2026-05-05 12:27 | 34.61236 | 135.16353 | 2270 ft | 182 kts | 224° |
| 2026-05-05 12:27 | 34.60368 | 135.15167 | 2549 ft | 196 kts | 225° |
| 2026-05-05 12:27 | 34.59456 | 135.13869 | 2832 ft | 210 kts | 226° |
| 2026-05-05 12:27 | 34.58480 | 135.12443 | 3058 ft | 230 kts | 227° |
| 2026-05-05 12:28 | 34.57509 | 135.10815 | 3385 ft | 249 kts | 236° |
| 2026-05-05 12:28 | 34.56723 | 135.08903 | 3904 ft | 260 kts | 244° |
| 2026-05-05 12:28 | 34.56108 | 135.06842 | 4558 ft | 265 kts | 253° |
| 2026-05-05 12:28 | 34.55854 | 135.04613 | 5256 ft | 271 kts | 265° |
| 2026-05-05 12:29 | 34.55887 | 135.02335 | 5953 ft | 274 kts | 269° |
| 2026-05-05 12:29 | 34.55974 | 135.00022 | 6613 ft | 278 kts | 270° |
| 2026-05-05 12:29 | 34.56062 | 134.97683 | 7289 ft | 282 kts | 269° |
| 2026-05-05 12:29 | 34.56145 | 134.95314 | 7990 ft | 286 kts | 271° |
| 2026-05-05 12:30 | 34.56643 | 134.92980 | 8612 ft | 296 kts | 298° |
| 2026-05-05 12:30 | 34.58095 | 134.91218 | 9250 ft | 304 kts | 330° |
| 2026-05-05 12:30 | 34.60104 | 134.90400 | 9939 ft | 307 kts | 348° |
| 2026-05-05 12:30 | 34.62211 | 134.89909 | 10498 ft | 315 kts | 348° |
| 2026-05-05 12:31 | 34.64401 | 134.89326 | 10822 ft | 331 kts | 346° |
| 2026-05-05 12:31 | 34.66730 | 134.88990 | 11070 ft | 347 kts | 6° |
| 2026-05-05 12:31 | 34.69070 | 134.89876 | 11342 ft | 359 kts | 28° |
| 2026-05-05 12:31 | 34.71281 | 134.91352 | 11759 ft | 368 kts | 30° |
| 2026-05-05 12:32 | 34.73543 | 134.92834 | 12353 ft | 373 kts | 28° |
| 2026-05-05 12:32 | 34.75891 | 134.94224 | 12927 ft | 376 kts | 25° |
| 2026-05-05 12:32 | 34.78282 | 134.95523 | 13509 ft | 380 kts | 24° |
| 2026-05-05 12:32 | 34.80715 | 134.96789 | 14066 ft | 383 kts | 23° |
| 2026-05-05 12:33 | 34.83006 | 134.98416 | 14579 ft | 386 kts | 42° |
| 2026-05-05 12:33 | 34.84592 | 135.01008 | 15102 ft | 386 kts | 67° |
| 2026-05-05 12:33 | 34.85163 | 135.04143 | 15620 ft | 383 kts | 90° |
| 2026-05-05 12:33 | 34.85051 | 135.07358 | 16145 ft | 384 kts | 96° |
| 2026-05-05 12:34 | 34.84847 | 135.10624 | 16633 ft | 388 kts | 96° |
| 2026-05-05 12:34 | 34.84687 | 135.13915 | 17088 ft | 392 kts | 95° |
| 2026-05-05 12:34 | 34.84582 | 135.17230 | 17567 ft | 395 kts | 93° |
| 2026-05-05 12:34 | 34.84517 | 135.20566 | 18010 ft | 399 kts | 92° |
| 2026-05-05 12:35 | 34.84479 | 135.23952 | 18473 ft | 402 kts | 92° |
| 2026-05-05 12:35 | 34.84455 | 135.27355 | 18881 ft | 406 kts | 92° |
| 2026-05-05 12:35 | 34.84440 | 135.30791 | 19284 ft | 410 kts | 92° |
| 2026-05-05 12:35 | 34.84429 | 135.34286 | 19681 ft | 414 kts | 92° |
| 2026-05-05 12:36 | 34.84419 | 135.37794 | 20105 ft | 417 kts | 92° |
| 2026-05-05 12:36 | 34.84408 | 135.41323 | 20494 ft | 421 kts | 92° |
| 2026-05-05 12:36 | 34.84397 | 135.44887 | 20873 ft | 425 kts | 92° |
| 2026-05-05 12:36 | 34.84387 | 135.48478 | 21266 ft | 428 kts | 92° |
| 2026-05-05 12:37 | 34.84375 | 135.52098 | 21637 ft | 432 kts | 92° |
| 2026-05-05 12:37 | 34.84363 | 135.55752 | 22013 ft | 436 kts | 92° |
| 2026-05-05 12:37 | 34.84348 | 135.59457 | 22379 ft | 439 kts | 92° |
| 2026-05-05 12:37 | 34.84333 | 135.63163 | 22764 ft | 442 kts | 92° |
| 2026-05-05 12:38 | 34.84317 | 135.66903 | 23104 ft | 446 kts | 93° |
| 2026-05-05 12:38 | 34.84300 | 135.70668 | 23440 ft | 449 kts | 92° |
| 2026-05-05 12:38 | 34.84282 | 135.74468 | 23721 ft | 454 kts | 93° |
| 2026-05-05 12:38 | 34.84261 | 135.78307 | 23965 ft | 459 kts | 93° |
| 2026-05-05 12:39 | 34.84239 | 135.82196 | 24218 ft | 464 kts | 93° |
| 2026-05-05 12:39 | 34.84215 | 135.86150 | 24475 ft | 469 kts | 93° |
| 2026-05-05 12:39 | 34.84191 | 135.90117 | 24751 ft | 473 kts | 94° |
| 2026-05-05 12:39 | 34.84165 | 135.94120 | 25016 ft | 477 kts | 94° |
| 2026-05-05 12:40 | 34.84135 | 135.98158 | 25276 ft | 482 kts | 94° |
| 2026-05-05 12:40 | 34.84104 | 136.02232 | 25518 ft | 486 kts | 93° |
| 2026-05-05 12:40 | 34.84073 | 136.06346 | 25775 ft | 490 kts | 94° |
| 2026-05-05 12:40 | 34.84041 | 136.10484 | 26070 ft | 493 kts | 94° |
| 2026-05-05 12:41 | 34.84007 | 136.14680 | 26349 ft | 497 kts | 94° |
| 2026-05-05 12:41 | 34.83973 | 136.18875 | 26592 ft | 501 kts | 94° |
| 2026-05-05 12:41 | 34.83935 | 136.23107 | 26844 ft | 504 kts | 94° |
| 2026-05-05 12:41 | 34.83895 | 136.27366 | 27080 ft | 508 kts | 94° |
| 2026-05-05 12:42 | 34.83851 | 136.31657 | 27314 ft | 512 kts | 94° |
| 2026-05-05 12:42 | 34.83809 | 136.35982 | 27564 ft | 515 kts | 94° |
| 2026-05-05 12:42 | 34.83762 | 136.40324 | 27889 ft | 516 kts | 94° |
| 2026-05-05 12:42 | 34.83718 | 136.44704 | 28209 ft | 518 kts | 95° |
| 2026-05-05 12:43 | 34.83672 | 136.49071 | 28515 ft | 520 kts | 95° |
| 2026-05-05 12:43 | 34.83620 | 136.53455 | 28814 ft | 522 kts | 95° |
| 2026-05-05 12:43 | 34.83570 | 136.57855 | 29104 ft | 524 kts | 95° |
| 2026-05-05 12:43 | 34.83519 | 136.62263 | 29420 ft | 525 kts | 95° |
| 2026-05-05 12:44 | 34.83465 | 136.66688 | 29740 ft | 526 kts | 96° |
| 2026-05-05 12:44 | 34.83406 | 136.71127 | 30004 ft | 528 kts | 96° |
| 2026-05-05 12:44 | 34.83344 | 136.75616 | 30240 ft | 531 kts | 96° |
| 2026-05-05 12:44 | 34.83283 | 136.80098 | 30474 ft | 534 kts | 96° |
| 2026-05-05 12:45 | 34.83222 | 136.84601 | 30751 ft | 535 kts | 96° |
| 2026-05-05 12:45 | 34.83159 | 136.89131 | 31026 ft | 537 kts | 96° |
| 2026-05-05 12:45 | 34.83053 | 136.93655 | 31247 ft | 537 kts | 99° |
| 2026-05-05 12:45 | 34.82744 | 136.98148 | 31281 ft | 535 kts | 103° |
| 2026-05-05 12:46 | 34.81758 | 137.07101 | 31289 ft | 535 kts | 104° |
| 2026-05-05 12:46 | 34.80722 | 137.16010 | 31293 ft | 534 kts | 104° |
| 2026-05-05 12:47 | 34.79708 | 137.24917 | 31295 ft | 535 kts | 104° |
| 2026-05-05 12:47 | 34.78698 | 137.33845 | 31296 ft | 534 kts | 104° |
| 2026-05-05 12:48 | 34.78053 | 137.42880 | 31301 ft | 540 kts | 98° |
| 2026-05-05 12:48 | 34.77753 | 137.51955 | 31302 ft | 540 kts | 97° |
| 2026-05-05 12:49 | 34.77410 | 137.61025 | 31303 ft | 539 kts | 98° |
| 2026-05-05 12:49 | 34.77014 | 137.70141 | 31304 ft | 540 kts | 99° |
| 2026-05-05 12:50 | 34.76601 | 137.79194 | 31304 ft | 540 kts | 99° |
| 2026-05-05 12:50 | 34.76184 | 137.88255 | 31311 ft | 540 kts | 99° |
| 2026-05-05 12:51 | 34.75759 | 137.97307 | 31319 ft | 540 kts | 99° |
| 2026-05-05 12:51 | 34.75540 | 138.01884 | 31082 ft | 540 kts | 99° |
| 2026-05-05 12:51 | 34.75325 | 138.06401 | 30824 ft | 537 kts | 98° |
| 2026-05-05 12:52 | 34.75112 | 138.10888 | 30576 ft | 532 kts | 99° |
| 2026-05-05 12:52 | 34.74897 | 138.15335 | 30319 ft | 528 kts | 98° |
| 2026-05-05 12:52 | 34.74679 | 138.19754 | 29961 ft | 527 kts | 98° |
| 2026-05-05 12:52 | 34.74461 | 138.24170 | 29483 ft | 526 kts | 99° |
| 2026-05-05 12:53 | 34.74241 | 138.28571 | 28943 ft | 524 kts | 98° |
| 2026-05-05 12:53 | 34.74016 | 138.32992 | 28344 ft | 523 kts | 98° |
| 2026-05-05 12:53 | 34.73791 | 138.37366 | 27783 ft | 520 kts | 98° |
| 2026-05-05 12:53 | 34.73569 | 138.41707 | 27208 ft | 516 kts | 97° |
| 2026-05-05 12:54 | 34.73134 | 138.50257 | 26381 ft | 503 kts | 97° |
| 2026-05-05 12:54 | 34.72918 | 138.54451 | 25961 ft | 498 kts | 96° |
| 2026-05-05 12:54 | 34.72704 | 138.58611 | 25543 ft | 493 kts | 97° |
| 2026-05-05 12:55 | 34.72487 | 138.62757 | 25139 ft | 490 kts | 96° |
| 2026-05-05 12:55 | 34.72272 | 138.66840 | 24765 ft | 484 kts | 97° |
| 2026-05-05 12:55 | 34.72058 | 138.70885 | 24388 ft | 480 kts | 96° |
| 2026-05-05 12:55 | 34.71843 | 138.74898 | 24023 ft | 477 kts | 96° |
| 2026-05-05 12:56 | 34.71624 | 138.78904 | 23467 ft | 477 kts | 95° |
| 2026-05-05 12:56 | 34.71514 | 138.82884 | 23060 ft | 471 kts | 92° |
| 2026-05-05 12:56 | 34.71497 | 138.86823 | 22872 ft | 468 kts | 91° |
| 2026-05-05 12:56 | 34.71497 | 138.90778 | 22726 ft | 466 kts | 91° |
| 2026-05-05 12:57 | 34.71493 | 138.94690 | 22605 ft | 464 kts | 91° |
| 2026-05-05 12:57 | 34.71483 | 138.98587 | 22451 ft | 463 kts | 92° |
| 2026-05-05 12:57 | 34.71524 | 139.02474 | 22327 ft | 461 kts | 87° |
| 2026-05-05 12:57 | 34.71861 | 139.06300 | 22060 ft | 454 kts | 83° |
| 2026-05-05 12:58 | 34.72288 | 139.10062 | 21536 ft | 451 kts | 82° |
| 2026-05-05 12:58 | 34.72734 | 139.13790 | 21053 ft | 446 kts | 82° |
| 2026-05-05 12:58 | 34.73185 | 139.17487 | 20748 ft | 435 kts | 82° |
| 2026-05-05 12:58 | 34.73644 | 139.21051 | 20529 ft | 424 kts | 79° |
| 2026-05-05 12:59 | 34.74327 | 139.24489 | 20170 ft | 418 kts | 75° |
| 2026-05-05 12:59 | 34.75099 | 139.27853 | 19751 ft | 413 kts | 75° |
| 2026-05-05 12:59 | 34.75860 | 139.31145 | 19214 ft | 402 kts | 75° |
| 2026-05-05 13:00 | 34.77283 | 139.37518 | 17822 ft | 379 kts | 76° |
| 2026-05-05 13:00 | 34.77941 | 139.40549 | 17420 ft | 361 kts | 76° |
| 2026-05-05 13:01 | 34.79815 | 139.48971 | 15607 ft | 336 kts | 68° |
| 2026-05-05 13:01 | 34.81132 | 139.51279 | 15207 ft | 332 kts | 47° |
| 2026-05-05 13:01 | 34.82761 | 139.53205 | 15033 ft | 323 kts | 44° |
| 2026-05-05 13:01 | 34.84374 | 139.55037 | 14870 ft | 314 kts | 44° |
| 2026-05-05 13:02 | 34.85937 | 139.56853 | 14659 ft | 307 kts | 45° |
| 2026-05-05 13:02 | 34.87444 | 139.58656 | 14335 ft | 304 kts | 46° |
| 2026-05-05 13:02 | 34.88926 | 139.60466 | 13996 ft | 302 kts | 46° |
| 2026-05-05 13:02 | 34.90388 | 139.62276 | 13647 ft | 300 kts | 47° |
| 2026-05-05 13:03 | 34.91835 | 139.64084 | 13300 ft | 298 kts | 47° |
| 2026-05-05 13:03 | 34.93264 | 139.65880 | 12960 ft | 296 kts | 47° |
| 2026-05-05 13:03 | 34.94685 | 139.67668 | 12609 ft | 294 kts | 47° |
| 2026-05-05 13:03 | 34.96106 | 139.69461 | 12260 ft | 292 kts | 47° |
| 2026-05-05 13:04 | 34.97510 | 139.71232 | 11894 ft | 291 kts | 47° |
| 2026-05-05 13:04 | 34.98907 | 139.72997 | 11534 ft | 290 kts | 47° |
| 2026-05-05 13:04 | 35.00300 | 139.74755 | 11164 ft | 289 kts | 47° |
| 2026-05-05 13:04 | 35.01686 | 139.76511 | 10796 ft | 288 kts | 47° |
| 2026-05-05 13:05 | 35.03066 | 139.78258 | 10443 ft | 287 kts | 47° |
| 2026-05-05 13:05 | 35.04441 | 139.80000 | 10109 ft | 285 kts | 46° |
| 2026-05-05 13:05 | 35.05820 | 139.81748 | 10043 ft | 286 kts | 46° |
| 2026-05-05 13:05 | 35.07188 | 139.83483 | 10033 ft | 279 kts | 46° |
| 2026-05-05 13:06 | 35.08520 | 139.85172 | 10034 ft | 276 kts | 46° |
| 2026-05-05 13:06 | 35.09843 | 139.86852 | 10035 ft | 275 kts | 46° |
| 2026-05-05 13:06 | 35.11164 | 139.88529 | 10032 ft | 275 kts | 46° |
| 2026-05-05 13:06 | 35.12483 | 139.90203 | 10035 ft | 274 kts | 46° |
| 2026-05-05 13:07 | 35.13825 | 139.91826 | 9909 ft | 271 kts | 38° |
| 2026-05-05 13:07 | 35.15401 | 139.93092 | 9557 ft | 270 kts | 30° |
| 2026-05-05 13:07 | 35.17043 | 139.94199 | 9196 ft | 270 kts | 28° |
| 2026-05-05 13:07 | 35.18681 | 139.95298 | 8876 ft | 269 kts | 29° |
| 2026-05-05 13:08 | 35.20300 | 139.96414 | 8543 ft | 268 kts | 30° |
| 2026-05-05 13:08 | 35.21890 | 139.97536 | 8384 ft | 261 kts | 30° |
| 2026-05-05 13:08 | 35.23437 | 139.98643 | 8258 ft | 257 kts | 31° |
| 2026-05-05 13:08 | 35.24968 | 139.99749 | 8132 ft | 256 kts | 31° |
| 2026-05-05 13:09 | 35.26508 | 140.00868 | 8006 ft | 256 kts | 31° |
| 2026-05-05 13:09 | 35.28038 | 140.01983 | 7880 ft | 256 kts | 31° |
| 2026-05-05 13:09 | 35.29558 | 140.03092 | 7757 ft | 255 kts | 31° |
| 2026-05-05 13:09 | 35.31075 | 140.04199 | 7638 ft | 254 kts | 31° |
| 2026-05-05 13:10 | 35.32587 | 140.05304 | 7514 ft | 254 kts | 31° |
| 2026-05-05 13:10 | 35.34098 | 140.06410 | 7392 ft | 253 kts | 31° |
| 2026-05-05 13:10 | 35.35607 | 140.07515 | 7270 ft | 253 kts | 31° |
| 2026-05-05 13:10 | 35.37121 | 140.08624 | 7146 ft | 251 kts | 31° |
| 2026-05-05 13:11 | 35.38617 | 140.09720 | 7037 ft | 250 kts | 31° |
| 2026-05-05 13:11 | 35.40091 | 140.10801 | 7023 ft | 243 kts | 31° |
| 2026-05-05 13:11 | 35.41530 | 140.11856 | 7026 ft | 241 kts | 31° |
| 2026-05-05 13:11 | 35.42963 | 140.12907 | 7024 ft | 241 kts | 31° |
| 2026-05-05 13:12 | 35.44396 | 140.13959 | 7022 ft | 240 kts | 31° |
| 2026-05-05 13:12 | 35.45829 | 140.15012 | 7022 ft | 241 kts | 31° |
| 2026-05-05 13:12 | 35.47275 | 140.16074 | 7011 ft | 241 kts | 31° |
| 2026-05-05 13:12 | 35.48713 | 140.17131 | 7015 ft | 241 kts | 31° |
| 2026-05-05 13:13 | 35.50146 | 140.18187 | 7019 ft | 241 kts | 30° |
| 2026-05-05 13:13 | 35.51582 | 140.19243 | 7020 ft | 241 kts | 30° |
| 2026-05-05 13:13 | 35.53111 | 140.20036 | 7003 ft | 239 kts | 8° |
| 2026-05-05 13:13 | 35.54759 | 140.20006 | 6832 ft | 238 kts | 345° |
| 2026-05-05 13:14 | 35.56349 | 140.19466 | 6566 ft | 236 kts | 341° |
| 2026-05-05 13:14 | 35.57893 | 140.18785 | 6272 ft | 234 kts | 329° |
| 2026-05-05 13:14 | 35.59130 | 140.17532 | 5985 ft | 230 kts | 304° |
| 2026-05-05 13:14 | 35.59925 | 140.15853 | 5929 ft | 229 kts | 290° |
| 2026-05-05 13:15 | 35.60365 | 140.13996 | 5867 ft | 227 kts | 276° |
| 2026-05-05 13:15 | 35.60506 | 140.12080 | 5794 ft | 225 kts | 270° |
| 2026-05-05 13:15 | 35.60548 | 140.10167 | 5627 ft | 225 kts | 268° |
| 2026-05-05 13:15 | 35.60549 | 140.08257 | 5405 ft | 224 kts | 267° |
| 2026-05-05 13:16 | 35.60534 | 140.06343 | 5163 ft | 222 kts | 266° |
| 2026-05-05 13:16 | 35.60517 | 140.04469 | 4909 ft | 219 kts | 266° |
| 2026-05-05 13:16 | 35.60502 | 140.02631 | 4639 ft | 212 kts | 266° |
| 2026-05-05 13:16 | 35.60490 | 140.00872 | 4330 ft | 203 kts | 265° |
| 2026-05-05 13:17 | 35.60479 | 139.99172 | 4020 ft | 197 kts | 265° |
| 2026-05-05 13:17 | 35.60469 | 139.97528 | 3762 ft | 188 kts | 265° |
| 2026-05-05 13:17 | 35.60461 | 139.95974 | 3501 ft | 179 kts | 264° |
| 2026-05-05 13:17 | 35.60452 | 139.94470 | 3183 ft | 173 kts | 263° |
| 2026-05-05 13:18 | 35.60444 | 139.93026 | 2873 ft | 167 kts | 264° |
| 2026-05-05 13:18 | 35.60435 | 139.91611 | 2626 ft | 167 kts | 264° |
| 2026-05-05 13:18 | 35.60427 | 139.90184 | 2403 ft | 168 kts | 264° |
| 2026-05-05 13:18 | 35.60420 | 139.88760 | 2223 ft | 164 kts | 264° |
| 2026-05-05 13:19 | 35.60415 | 139.87413 | 1968 ft | 154 kts | 264° |
| 2026-05-05 13:19 | 35.60434 | 139.86109 | 1753 ft | 153 kts | 266° |
| 2026-05-05 13:19 | 35.60473 | 139.84805 | 1617 ft | 152 kts | 266° |
| 2026-05-05 13:19 | 35.60503 | 139.83515 | 1428 ft | 151 kts | 265° |
| 2026-05-05 13:20 | 35.60463 | 139.82252 | 1267 ft | 146 kts | 255° |
| 2026-05-05 13:20 | 35.60121 | 139.81106 | 1064 ft | 143 kts | 236° |
| 2026-05-05 13:20 | 35.59515 | 139.80184 | 806 ft | 138 kts | 221° |
| 2026-05-05 13:20 | 35.58786 | 139.79433 | 646 ft | 137 kts | 212° |
| 2026-05-05 13:21 | 35.58004 | 139.78776 | 434 ft | 137 kts | 211° |
| 2026-05-05 13:21 | 35.57220 | 139.78109 | 238 ft | 136 kts | 211° |
| 2026-05-05 13:21 | 35.56446 | 139.77449 | 73 ft | 134 kts | 211° |
| 2026-05-05 13:21 | 35.55821 | 139.76920 | 58 ft | 70 kts | 216° |
| 2026-05-05 13:22 | 35.55523 | 139.76677 | 58 ft | 44 kts | 201° |
| 2026-05-05 13:22 | 35.55335 | 139.76622 | 58 ft | 18 kts | 171° |
| 2026-05-05 13:22 | 35.55296 | 139.76731 | 58 ft | 17 kts | 49° |
| 2026-05-05 13:22 | 35.55389 | 139.76816 | 58 ft | 16 kts | 33° |
| 2026-05-05 13:23 | 35.55475 | 139.76890 | 58 ft | 15 kts | 35° |
| 2026-05-05 13:23 | 35.55555 | 139.76959 | 58 ft | 13 kts | 36° |
| 2026-05-05 13:23 | 35.55619 | 139.77014 | 58 ft | 9 kts | 35° |
| 2026-05-05 13:23 | 35.55674 | 139.77061 | 58 ft | 10 kts | 35° |
| 2026-05-05 13:24 | 35.55736 | 139.77115 | 58 ft | 11 kts | 36° |
| 2026-05-05 13:24 | 35.55807 | 139.77176 | 58 ft | 14 kts | 34° |
| 2026-05-05 13:24 | 35.55890 | 139.77247 | 58 ft | 14 kts | 36° |
| 2026-05-05 13:24 | 35.55956 | 139.77353 | 58 ft | 17 kts | 60° |
| 2026-05-05 13:25 | 35.56019 | 139.77486 | 58 ft | 19 kts | 60° |
| 2026-05-05 13:25 | 35.56086 | 139.77627 | 58 ft | 19 kts | 60° |
| 2026-05-05 13:25 | 35.56153 | 139.77769 | 58 ft | 18 kts | 60° |
| 2026-05-05 13:25 | 35.56222 | 139.77913 | 58 ft | 20 kts | 60° |
| 2026-05-05 13:26 | 35.56279 | 139.78033 | 58 ft | 13 kts | 60° |
| 2026-05-05 13:26 | 35.56330 | 139.78141 | 58 ft | 15 kts | 60° |
| 2026-05-05 13:26 | 35.56325 | 139.78218 | 58 ft | 10 kts | 135° |
| 2026-05-05 13:26 | 35.56254 | 139.78272 | 58 ft | 14 kts | 151° |
| 2026-05-05 13:27 | 35.56161 | 139.78338 | 58 ft | 17 kts | 149° |
| 2026-05-05 13:27 | 35.56053 | 139.78413 | 58 ft | 17 kts | 149° |
| 2026-05-05 13:27 | 35.55953 | 139.78483 | 58 ft | 14 kts | 148° |
| 2026-05-05 13:27 | 35.55870 | 139.78546 | 58 ft | 13 kts | 152° |
| 2026-05-05 13:28 | 35.55807 | 139.78573 | 58 ft | 7 kts | 220° |
| 2026-05-05 13:28 | 35.55779 | 139.78524 | 58 ft | 6 kts | 239° |
| 2026-05-05 13:28 | 35.55766 | 139.78499 | 58 ft | 0 kts | 239° |
| 2026-05-05 13:28 | 35.55764 | 139.78494 | 58 ft | 1 kts | 238° |
| 2026-05-05 13:29 | 35.55761 | 139.78488 | 58 ft | 0 kts | 239° |
| 2026-05-05 13:29 | 35.55760 | 139.78486 | 58 ft | 0 kts | 239° |